createdAt,value
2019-05-14T00:00:13.189Z,5.70
2019-05-14T00:05:03.790Z,5.50
2019-05-14T00:09:58.453Z,5.40
2019-05-14T00:15:17.643Z,5.10
2019-05-14T00:20:13.062Z,4.90
2019-05-14T00:24:57.244Z,4.90
2019-05-14T00:30:02.455Z,4.80
2019-05-14T00:35:01.712Z,4.70
2019-05-14T00:39:52.576Z,4.70
2019-05-14T00:44:53.598Z,4.60
2019-05-14T00:49:46.294Z,4.70
2019-05-14T00:54:38.788Z,4.70
2019-05-14T00:59:32.190Z,4.70
2019-05-14T01:04:22.449Z,4.80
2019-05-14T01:09:11.864Z,4.80
2019-05-14T01:14:01.656Z,5.00
2019-05-14T01:18:55.511Z,5.00
2019-05-14T01:23:44.681Z,5.00
2019-05-14T01:28:38.641Z,5.10
2019-05-14T01:33:32.697Z,5.40
2019-05-14T01:38:21.890Z,5.60
2019-05-14T01:43:11.690Z,5.80
2019-05-14T01:48:11.655Z,5.80
2019-05-14T01:53:08.747Z,5.60
2019-05-14T01:58:06.323Z,5.50
2019-05-14T02:02:55.115Z,5.30
2019-05-14T02:07:46.155Z,5.10
2019-05-14T02:12:48.288Z,5.00
2019-05-14T02:17:38.226Z,4.80
2019-05-14T02:22:24.961Z,4.80
2019-05-14T02:27:12.252Z,4.80
2019-05-14T02:32:03.926Z,4.80
2019-05-14T02:37:10.961Z,4.50
2019-05-14T02:42:04.066Z,4.20
2019-05-14T02:46:54.729Z,4.10
2019-05-14T02:51:50.053Z,3.90
2019-05-14T02:56:49.601Z,3.70
2019-05-14T03:01:43.473Z,3.50
2019-05-14T03:06:49.868Z,3.50
2019-05-14T03:11:59.492Z,3.50
2019-05-14T03:16:49.467Z,3.50
2019-05-14T03:21:39.510Z,3.50
2019-05-14T03:26:39.833Z,3.30
2019-05-14T03:31:43.786Z,3.10
2019-05-14T03:36:43.266Z,3.10
2019-05-14T03:41:39.497Z,3.10
2019-05-14T03:46:44.293Z,3.30
2019-05-14T03:51:30.075Z,4.30
2019-05-14T03:56:31.271Z,5.40
2019-05-14T04:01:20.170Z,6.00
2019-05-14T04:06:10.486Z,5.80
2019-05-14T04:11:00.379Z,5.30
2019-05-14T04:15:54.094Z,5.00
2019-05-14T04:20:49.932Z,4.90
2019-05-14T04:25:45.801Z,5.00
2019-05-14T04:30:44.169Z,5.20
2019-05-14T04:35:59.929Z,5.40
2019-05-14T04:40:59.487Z,5.50
2019-05-14T04:45:59.141Z,5.80
2019-05-14T04:50:50.219Z,6.10
2019-05-14T04:55:40.023Z,6.30
2019-05-14T05:00:39.181Z,6.30
2019-05-14T05:05:35.066Z,6.40
2019-05-14T05:10:33.822Z,6.50
2019-05-14T05:15:30.829Z,6.80
2019-05-14T05:20:23.470Z,6.90
2019-05-14T05:25:09.474Z,7.20
2019-05-14T05:30:19.113Z,7.30
2019-05-14T05:35:04.890Z,7.30
2019-05-14T05:40:09.207Z,7.40
2019-05-14T05:45:08.120Z,7.30
2019-05-14T05:50:08.530Z,7.50
2019-05-14T05:55:11.391Z,8.00
2019-05-14T06:00:22.632Z,8.50
2019-05-14T06:05:29.327Z,8.70
2019-05-14T06:10:23.574Z,9.60
2019-05-14T06:15:44.639Z,10.00
2019-05-14T06:20:23.058Z,10.00
2019-05-14T06:25:40.260Z,9.90
2019-05-14T06:30:58.725Z,10.00
2019-05-14T06:36:14.384Z,9.70
2019-05-14T06:41:08.382Z,9.90
2019-05-14T06:45:58.627Z,10.10
2019-05-14T06:51:15.702Z,10.40
2019-05-14T06:56:10.079Z,10.70
2019-05-14T07:01:06.016Z,11.10
2019-05-14T07:06:05.031Z,11.30
2019-05-14T07:11:12.984Z,11.50
2019-05-14T07:16:08.932Z,11.30
